sensor_id;sensor_type;location;lat;lon;timestamp;temperature;humidity
32394;DHT22;18853;45.426;9.206;2023-08-12T00:01:50;31.50;44.90
32394;DHT22;18853;45.426;9.206;2023-08-12T00:04:16;31.50;44.90
32394;DHT22;18853;45.426;9.206;2023-08-12T00:06:42;31.50;44.90
32394;DHT22;18853;45.426;9.206;2023-08-12T00:09:09;31.50;45.00
32394;DHT22;18853;45.426;9.206;2023-08-12T00:11:37;31.50;45.10
32394;DHT22;18853;45.426;9.206;2023-08-12T00:14:03;31.40;44.90
32394;DHT22;18853;45.426;9.206;2023-08-12T00:16:29;31.40;44.90
32394;DHT22;18853;45.426;9.206;2023-08-12T00:18:55;31.40;44.90
32394;DHT22;18853;45.426;9.206;2023-08-12T00:21:20;31.40;45.60
32394;DHT22;18853;45.426;9.206;2023-08-12T00:23:46;31.30;44.90
32394;DHT22;18853;45.426;9.206;2023-08-12T00:26:15;31.30;45.00
32394;DHT22;18853;45.426;9.206;2023-08-12T00:28:41;31.30;45.10
32394;DHT22;18853;45.426;9.206;2023-08-12T00:31:07;31.20;44.90
32394;DHT22;18853;45.426;9.206;2023-08-12T00:33:33;31.20;44.90
32394;DHT22;18853;45.426;9.206;2023-08-12T00:35:58;31.20;45.00
32394;DHT22;18853;45.426;9.206;2023-08-12T00:38:24;31.20;45.10
32394;DHT22;18853;45.426;9.206;2023-08-12T00:40:50;31.10;45.00
32394;DHT22;18853;45.426;9.206;2023-08-12T00:43:15;31.10;45.00
32394;DHT22;18853;45.426;9.206;2023-08-12T00:45:41;31.00;44.90
32394;DHT22;18853;45.426;9.206;2023-08-12T00:48:08;31.00;45.00
32394;DHT22;18853;45.426;9.206;2023-08-12T00:50:36;31.00;45.00
32394;DHT22;18853;45.426;9.206;2023-08-12T00:53:02;30.90;44.80
32394;DHT22;18853;45.426;9.206;2023-08-12T00:55:31;30.90;44.80
32394;DHT22;18853;45.426;9.206;2023-08-12T00:57:58;30.90;45.40
32394;DHT22;18853;45.426;9.206;2023-08-12T01:00:24;30.80;44.70
32394;DHT22;18853;45.426;9.206;2023-08-12T01:02:51;30.80;44.70
32394;DHT22;18853;45.426;9.206;2023-08-12T01:05:18;30.80;44.80
32394;DHT22;18853;45.426;9.206;2023-08-12T01:07:45;30.80;44.70
32394;DHT22;18853;45.426;9.206;2023-08-12T01:10:12;30.80;44.80
32394;DHT22;18853;45.426;9.206;2023-08-12T01:15:43;30.70;44.40
32394;DHT22;18853;45.426;9.206;2023-08-12T01:18:10;30.60;44.70
32394;DHT22;18853;45.426;9.206;2023-08-12T01:20:36;30.60;44.60
32394;DHT22;18853;45.426;9.206;2023-08-12T01:23:16;30.60;44.60
32394;DHT22;18853;45.426;9.206;2023-08-12T01:25:42;30.70;44.50
32394;DHT22;18853;45.426;9.206;2023-08-12T01:28:08;30.50;44.50
32394;DHT22;18853;45.426;9.206;2023-08-12T01:31:02;30.50;44.30
32394;DHT22;18853;45.426;9.206;2023-08-12T01:33:33;30.50;44.30
32394;DHT22;18853;45.426;9.206;2023-08-12T01:36:14;30.50;44.60
32394;DHT22;18853;45.426;9.206;2023-08-12T01:38:42;30.50;44.50
32394;DHT22;18853;45.426;9.206;2023-08-12T01:41:10;30.50;44.50
32394;DHT22;18853;45.426;9.206;2023-08-12T01:43:38;30.40;44.50
32394;DHT22;18853;45.426;9.206;2023-08-12T01:46:03;30.40;44.50
32394;DHT22;18853;45.426;9.206;2023-08-12T01:48:29;30.40;44.50
32394;DHT22;18853;45.426;9.206;2023-08-12T01:50:55;30.40;44.50
32394;DHT22;18853;45.426;9.206;2023-08-12T01:53:20;30.30;44.50
32394;DHT22;18853;45.426;9.206;2023-08-12T01:55:49;30.30;44.50
32394;DHT22;18853;45.426;9.206;2023-08-12T01:58:14;30.30;44.50
32394;DHT22;18853;45.426;9.206;2023-08-12T02:00:40;30.30;44.70
32394;DHT22;18853;45.426;9.206;2023-08-12T02:03:06;30.30;44.70
32394;DHT22;18853;45.426;9.206;2023-08-12T02:05:32;30.20;44.70
32394;DHT22;18853;45.426;9.206;2023-08-12T02:07:58;30.20;44.70
32394;DHT22;18853;45.426;9.206;2023-08-12T02:10:24;30.20;44.70
32394;DHT22;18853;45.426;9.206;2023-08-12T02:12:49;30.10;44.70
32394;DHT22;18853;45.426;9.206;2023-08-12T02:15:15;30.10;44.70
32394;DHT22;18853;45.426;9.206;2023-08-12T02:17:41;30.10;44.70
32394;DHT22;18853;45.426;9.206;2023-08-12T02:20:07;30.10;44.60
32394;DHT22;18853;45.426;9.206;2023-08-12T02:22:33;30.10;44.70
32394;DHT22;18853;45.426;9.206;2023-08-12T02:24:58;30.00;44.70
32394;DHT22;18853;45.426;9.206;2023-08-12T02:27:25;30.00;44.70
32394;DHT22;18853;45.426;9.206;2023-08-12T02:29:51;30.00;44.70
32394;DHT22;18853;45.426;9.206;2023-08-12T02:32:16;30.00;44.70
32394;DHT22;18853;45.426;9.206;2023-08-12T02:34:42;30.00;44.70
32394;DHT22;18853;45.426;9.206;2023-08-12T02:37:08;29.90;44.80
32394;DHT22;18853;45.426;9.206;2023-08-12T02:39:33;29.90;44.80
32394;DHT22;18853;45.426;9.206;2023-08-12T02:41:59;29.90;44.80
32394;DHT22;18853;45.426;9.206;2023-08-12T02:44:24;29.90;44.90
32394;DHT22;18853;45.426;9.206;2023-08-12T02:46:50;29.90;44.80
32394;DHT22;18853;45.426;9.206;2023-08-12T02:49:16;29.90;44.80
32394;DHT22;18853;45.426;9.206;2023-08-12T02:51:41;29.90;44.80
32394;DHT22;18853;45.426;9.206;2023-08-12T02:54:07;29.80;44.70
32394;DHT22;18853;45.426;9.206;2023-08-12T02:56:33;29.80;44.70
32394;DHT22;18853;45.426;9.206;2023-08-12T02:58:58;29.80;44.80
32394;DHT22;18853;45.426;9.206;2023-08-12T03:01:24;29.80;44.70
32394;DHT22;18853;45.426;9.206;2023-08-12T03:03:50;29.80;44.70
32394;DHT22;18853;45.426;9.206;2023-08-12T03:06:16;29.80;44.70
32394;DHT22;18853;45.426;9.206;2023-08-12T03:08:41;29.70;44.70
32394;DHT22;18853;45.426;9.206;2023-08-12T03:11:07;29.70;44.80
32394;DHT22;18853;45.426;9.206;2023-08-12T03:13:33;29.70;44.80
32394;DHT22;18853;45.426;9.206;2023-08-12T03:15:58;29.70;44.80
32394;DHT22;18853;45.426;9.206;2023-08-12T03:18:24;29.70;44.90
32394;DHT22;18853;45.426;9.206;2023-08-12T03:20:50;29.70;45.00
32394;DHT22;18853;45.426;9.206;2023-08-12T03:23:16;29.70;45.00
32394;DHT22;18853;45.426;9.206;2023-08-12T03:25:42;29.70;45.00
32394;DHT22;18853;45.426;9.206;2023-08-12T03:28:08;29.60;45.00
32394;DHT22;18853;45.426;9.206;2023-08-12T03:30:33;29.70;45.00
32394;DHT22;18853;45.426;9.206;2023-08-12T03:32:59;29.60;45.00
32394;DHT22;18853;45.426;9.206;2023-08-12T03:35:25;29.60;45.00
32394;DHT22;18853;45.426;9.206;2023-08-12T03:37:50;29.60;45.10
32394;DHT22;18853;45.426;9.206;2023-08-12T03:40:17;29.50;45.10
32394;DHT22;18853;45.426;9.206;2023-08-12T03:42:43;29.50;45.00
32394;DHT22;18853;45.426;9.206;2023-08-12T03:45:09;29.50;45.10
32394;DHT22;18853;45.426;9.206;2023-08-12T03:47:35;29.50;45.20
32394;DHT22;18853;45.426;9.206;2023-08-12T03:50:00;29.50;45.30
32394;DHT22;18853;45.426;9.206;2023-08-12T03:52:26;29.50;45.30
32394;DHT22;18853;45.426;9.206;2023-08-12T03:54:52;29.50;45.30
32394;DHT22;18853;45.426;9.206;2023-08-12T03:57:18;29.50;45.40
32394;DHT22;18853;45.426;9.206;2023-08-12T03:59:44;29.50;45.50
32394;DHT22;18853;45.426;9.206;2023-08-12T04:02:09;29.50;45.60
32394;DHT22;18853;45.426;9.206;2023-08-12T04:04:36;29.50;45.70
32394;DHT22;18853;45.426;9.206;2023-08-12T04:07:01;29.40;45.70
32394;DHT22;18853;45.426;9.206;2023-08-12T04:09:27;29.40;45.70
32394;DHT22;18853;45.426;9.206;2023-08-12T04:11:53;29.40;45.70
32394;DHT22;18853;45.426;9.206;2023-08-12T04:14:18;29.40;45.80
32394;DHT22;18853;45.426;9.206;2023-08-12T04:16:44;29.30;45.80
32394;DHT22;18853;45.426;9.206;2023-08-12T04:19:10;29.30;45.80
32394;DHT22;18853;45.426;9.206;2023-08-12T04:21:36;29.30;45.80
32394;DHT22;18853;45.426;9.206;2023-08-12T04:24:02;29.30;46.00
32394;DHT22;18853;45.426;9.206;2023-08-12T04:26:27;29.30;45.90
32394;DHT22;18853;45.426;9.206;2023-08-12T04:28:53;29.30;45.90
32394;DHT22;18853;45.426;9.206;2023-08-12T04:31:19;29.30;46.00
32394;DHT22;18853;45.426;9.206;2023-08-12T04:33:44;29.30;46.00
32394;DHT22;18853;45.426;9.206;2023-08-12T04:36:10;29.20;46.00
32394;DHT22;18853;45.426;9.206;2023-08-12T04:38:36;29.30;46.10
32394;DHT22;18853;45.426;9.206;2023-08-12T04:41:02;29.30;46.10
32394;DHT22;18853;45.426;9.206;2023-08-12T04:43:27;29.20;46.00
32394;DHT22;18853;45.426;9.206;2023-08-12T04:45:53;29.20;46.10
32394;DHT22;18853;45.426;9.206;2023-08-12T04:48:19;29.20;46.20
32394;DHT22;18853;45.426;9.206;2023-08-12T04:50:44;29.20;46.20
32394;DHT22;18853;45.426;9.206;2023-08-12T04:53:10;29.20;46.20
32394;DHT22;18853;45.426;9.206;2023-08-12T04:55:36;29.20;46.20
32394;DHT22;18853;45.426;9.206;2023-08-12T04:58:02;29.20;46.30
32394;DHT22;18853;45.426;9.206;2023-08-12T05:00:28;29.20;46.30
32394;DHT22;18853;45.426;9.206;2023-08-12T05:02:54;29.20;46.40
32394;DHT22;18853;45.426;9.206;2023-08-12T05:05:20;29.20;46.50
32394;DHT22;18853;45.426;9.206;2023-08-12T05:07:46;29.20;46.60
32394;DHT22;18853;45.426;9.206;2023-08-12T05:10:17;29.20;46.50
32394;DHT22;18853;45.426;9.206;2023-08-12T05:12:44;29.20;46.70
32394;DHT22;18853;45.426;9.206;2023-08-12T05:15:10;29.20;46.90
32394;DHT22;18853;45.426;9.206;2023-08-12T05:17:36;29.10;47.10
32394;DHT22;18853;45.426;9.206;2023-08-12T05:20:02;29.10;47.10
32394;DHT22;18853;45.426;9.206;2023-08-12T05:22:29;29.10;47.30
32394;DHT22;18853;45.426;9.206;2023-08-12T05:24:54;29.10;47.50
32394;DHT22;18853;45.426;9.206;2023-08-12T05:27:20;29.00;47.50
32394;DHT22;18853;45.426;9.206;2023-08-12T05:29:46;29.00;47.70
32394;DHT22;18853;45.426;9.206;2023-08-12T05:32:11;29.00;47.80
32394;DHT22;18853;45.426;9.206;2023-08-12T05:34:37;29.00;47.80
32394;DHT22;18853;45.426;9.206;2023-08-12T05:37:03;29.00;47.90
32394;DHT22;18853;45.426;9.206;2023-08-12T05:39:28;29.00;47.80
32394;DHT22;18853;45.426;9.206;2023-08-12T05:41:54;29.00;47.90
32394;DHT22;18853;45.426;9.206;2023-08-12T05:44:19;29.00;48.60
32394;DHT22;18853;45.426;9.206;2023-08-12T05:46:45;29.10;48.10
32394;DHT22;18853;45.426;9.206;2023-08-12T05:49:11;29.10;48.20
32394;DHT22;18853;45.426;9.206;2023-08-12T05:51:37;29.10;48.20
32394;DHT22;18853;45.426;9.206;2023-08-12T05:54:04;29.10;48.20
32394;DHT22;18853;45.426;9.206;2023-08-12T05:56:30;29.10;48.20
32394;DHT22;18853;45.426;9.206;2023-08-12T05:58:56;29.10;48.30
32394;DHT22;18853;45.426;9.206;2023-08-12T06:01:21;29.10;48.30
32394;DHT22;18853;45.426;9.206;2023-08-12T06:03:47;29.10;48.20
32394;DHT22;18853;45.426;9.206;2023-08-12T06:06:12;29.10;48.10
32394;DHT22;18853;45.426;9.206;2023-08-12T06:08:38;29.10;48.20
32394;DHT22;18853;45.426;9.206;2023-08-12T06:11:04;29.20;48.30
32394;DHT22;18853;45.426;9.206;2023-08-12T06:13:29;29.10;48.30
32394;DHT22;18853;45.426;9.206;2023-08-12T06:15:55;29.20;48.30
32394;DHT22;18853;45.426;9.206;2023-08-12T06:18:21;29.20;48.20
32394;DHT22;18853;45.426;9.206;2023-08-12T06:20:47;29.20;48.20
32394;DHT22;18853;45.426;9.206;2023-08-12T06:23:12;29.20;48.80
32394;DHT22;18853;45.426;9.206;2023-08-12T06:25:38;29.20;48.10
32394;DHT22;18853;45.426;9.206;2023-08-12T06:28:04;29.30;48.00
32394;DHT22;18853;45.426;9.206;2023-08-12T06:30:30;29.30;47.70
32394;DHT22;18853;45.426;9.206;2023-08-12T06:32:56;29.30;47.20
32394;DHT22;18853;45.426;9.206;2023-08-12T06:35:21;29.40;47.20
32394;DHT22;18853;45.426;9.206;2023-08-12T06:37:47;29.40;46.90
32394;DHT22;18853;45.426;9.206;2023-08-12T06:40:13;29.40;47.00
32394;DHT22;18853;45.426;9.206;2023-08-12T06:42:39;29.50;47.30
32394;DHT22;18853;45.426;9.206;2023-08-12T06:45:05;29.50;47.40
32394;DHT22;18853;45.426;9.206;2023-08-12T06:47:31;29.50;47.40
32394;DHT22;18853;45.426;9.206;2023-08-12T06:49:57;29.50;47.00
32394;DHT22;18853;45.426;9.206;2023-08-12T06:52:22;29.50;46.80
32394;DHT22;18853;45.426;9.206;2023-08-12T06:54:48;29.50;46.50
32394;DHT22;18853;45.426;9.206;2023-08-12T06:57:14;29.40;46.10
32394;DHT22;18853;45.426;9.206;2023-08-12T06:59:40;29.50;45.90
32394;DHT22;18853;45.426;9.206;2023-08-12T07:02:06;29.40;45.80
32394;DHT22;18853;45.426;9.206;2023-08-12T07:04:32;29.50;45.70
32394;DHT22;18853;45.426;9.206;2023-08-12T07:06:59;29.40;45.80
32394;DHT22;18853;45.426;9.206;2023-08-12T07:09:25;29.40;46.00
32394;DHT22;18853;45.426;9.206;2023-08-12T07:11:51;29.40;45.30
32394;DHT22;18853;45.426;9.206;2023-08-12T07:14:16;29.40;45.10
32394;DHT22;18853;45.426;9.206;2023-08-12T07:16:42;29.40;44.90
32394;DHT22;18853;45.426;9.206;2023-08-12T07:19:08;29.40;45.00
32394;DHT22;18853;45.426;9.206;2023-08-12T07:21:33;29.40;45.20
32394;DHT22;18853;45.426;9.206;2023-08-12T07:23:59;29.40;45.30
32394;DHT22;18853;45.426;9.206;2023-08-12T07:26:25;29.40;45.40
32394;DHT22;18853;45.426;9.206;2023-08-12T07:28:50;29.40;45.60
32394;DHT22;18853;45.426;9.206;2023-08-12T07:31:16;29.40;45.10
32394;DHT22;18853;45.426;9.206;2023-08-12T07:33:42;29.40;44.80
32394;DHT22;18853;45.426;9.206;2023-08-12T07:36:08;29.40;44.80
32394;DHT22;18853;45.426;9.206;2023-08-12T07:38:34;29.40;44.70
32394;DHT22;18853;45.426;9.206;2023-08-12T07:41:00;29.40;44.70
32394;DHT22;18853;45.426;9.206;2023-08-12T07:43:26;29.40;44.80
32394;DHT22;18853;45.426;9.206;2023-08-12T07:45:52;29.50;44.90
32394;DHT22;18853;45.426;9.206;2023-08-12T07:48:22;29.50;44.50
32394;DHT22;18853;45.426;9.206;2023-08-12T07:50:56;29.50;44.40
32394;DHT22;18853;45.426;9.206;2023-08-12T07:53:21;29.50;44.50
32394;DHT22;18853;45.426;9.206;2023-08-12T07:55:47;29.50;44.50
32394;DHT22;18853;45.426;9.206;2023-08-12T07:58:13;29.50;44.30
32394;DHT22;18853;45.426;9.206;2023-08-12T08:00:39;29.60;44.40
32394;DHT22;18853;45.426;9.206;2023-08-12T08:03:04;29.60;44.40
32394;DHT22;18853;45.426;9.206;2023-08-12T08:05:30;29.60;44.50
32394;DHT22;18853;45.426;9.206;2023-08-12T08:07:56;29.60;44.60
32394;DHT22;18853;45.426;9.206;2023-08-12T08:10:22;29.60;44.60
32394;DHT22;18853;45.426;9.206;2023-08-12T08:12:47;29.70;44.00
32394;DHT22;18853;45.426;9.206;2023-08-12T08:15:13;29.70;42.30
32394;DHT22;18853;45.426;9.206;2023-08-12T08:17:39;29.70;42.40
32394;DHT22;18853;45.426;9.206;2023-08-12T08:20:05;29.70;42.30
32394;DHT22;18853;45.426;9.206;2023-08-12T08:22:31;29.80;42.50
32394;DHT22;18853;45.426;9.206;2023-08-12T08:24:57;29.80;42.40
32394;DHT22;18853;45.426;9.206;2023-08-12T08:27:23;29.80;42.50
32394;DHT22;18853;45.426;9.206;2023-08-12T08:29:48;29.80;42.50
32394;DHT22;18853;45.426;9.206;2023-08-12T08:32:14;29.80;42.40
32394;DHT22;18853;45.426;9.206;2023-08-12T08:34:40;29.80;42.50
32394;DHT22;18853;45.426;9.206;2023-08-12T08:37:05;29.90;42.90
32394;DHT22;18853;45.426;9.206;2023-08-12T08:39:31;29.90;42.90
32394;DHT22;18853;45.426;9.206;2023-08-12T08:41:58;29.90;42.70
32394;DHT22;18853;45.426;9.206;2023-08-12T08:44:28;29.90;42.90
32394;DHT22;18853;45.426;9.206;2023-08-12T08:46:55;29.90;42.10
32394;DHT22;18853;45.426;9.206;2023-08-12T08:49:21;29.90;42.30
32394;DHT22;18853;45.426;9.206;2023-08-12T08:51:48;29.90;42.40
32394;DHT22;18853;45.426;9.206;2023-08-12T08:54:15;30.00;42.20
32394;DHT22;18853;45.426;9.206;2023-08-12T08:56:41;30.00;42.10
32394;DHT22;18853;45.426;9.206;2023-08-12T08:59:07;30.00;42.30
32394;DHT22;18853;45.426;9.206;2023-08-12T09:01:35;30.00;42.00
32394;DHT22;18853;45.426;9.206;2023-08-12T09:04:02;30.10;42.20
32394;DHT22;18853;45.426;9.206;2023-08-12T09:06:29;30.10;42.20
32394;DHT22;18853;45.426;9.206;2023-08-12T09:08:55;30.10;42.30
32394;DHT22;18853;45.426;9.206;2023-08-12T09:11:21;30.20;42.50
32394;DHT22;18853;45.426;9.206;2023-08-12T09:13:47;30.20;42.70
32394;DHT22;18853;45.426;9.206;2023-08-12T09:16:14;30.20;43.00
32394;DHT22;18853;45.426;9.206;2023-08-12T09:18:42;30.30;43.00
32394;DHT22;18853;45.426;9.206;2023-08-12T09:21:09;30.30;43.30
32394;DHT22;18853;45.426;9.206;2023-08-12T09:23:37;30.30;43.40
32394;DHT22;18853;45.426;9.206;2023-08-12T09:26:17;30.40;43.90
32394;DHT22;18853;45.426;9.206;2023-08-12T09:28:44;30.40;43.80
32394;DHT22;18853;45.426;9.206;2023-08-12T09:31:30;30.40;43.90
32394;DHT22;18853;45.426;9.206;2023-08-12T09:34:03;30.50;43.90
32394;DHT22;18853;45.426;9.206;2023-08-12T09:36:29;30.40;44.50
32394;DHT22;18853;45.426;9.206;2023-08-12T09:38:56;30.40;44.20
32394;DHT22;18853;45.426;9.206;2023-08-12T09:41:24;30.40;44.20
32394;DHT22;18853;45.426;9.206;2023-08-12T09:43:51;30.50;44.20
32394;DHT22;18853;45.426;9.206;2023-08-12T09:46:18;30.60;44.10
32394;DHT22;18853;45.426;9.206;2023-08-12T09:48:46;30.60;44.00
32394;DHT22;18853;45.426;9.206;2023-08-12T09:51:12;30.70;43.80
32394;DHT22;18853;45.426;9.206;2023-08-12T09:53:37;30.60;43.70
32394;DHT22;18853;45.426;9.206;2023-08-12T09:56:06;30.60;43.70
32394;DHT22;18853;45.426;9.206;2023-08-12T09:58:36;30.60;43.50
32394;DHT22;18853;45.426;9.206;2023-08-12T10:01:05;30.60;43.40
32394;DHT22;18853;45.426;9.206;2023-08-12T10:03:33;30.70;43.30
32394;DHT22;18853;45.426;9.206;2023-08-12T10:06:00;30.70;43.20
32394;DHT22;18853;45.426;9.206;2023-08-12T10:08:28;30.80;44.10
32394;DHT22;18853;45.426;9.206;2023-08-12T10:10:54;30.90;43.40
32394;DHT22;18853;45.426;9.206;2023-08-12T10:13:21;30.80;42.80
32394;DHT22;18853;45.426;9.206;2023-08-12T10:15:49;30.80;43.00
32394;DHT22;18853;45.426;9.206;2023-08-12T10:18:15;30.90;43.10
32394;DHT22;18853;45.426;9.206;2023-08-12T10:20:42;30.90;43.70
32394;DHT22;18853;45.426;9.206;2023-08-12T10:23:16;31.00;43.80
32394;DHT22;18853;45.426;9.206;2023-08-12T10:25:43;31.00;43.90
32394;DHT22;18853;45.426;9.206;2023-08-12T10:28:09;31.00;43.50
32394;DHT22;18853;45.426;9.206;2023-08-12T10:30:35;31.10;43.00
32394;DHT22;18853;45.426;9.206;2023-08-12T10:33:01;31.10;42.40
32394;DHT22;18853;45.426;9.206;2023-08-12T10:35:42;31.10;42.50
32394;DHT22;18853;45.426;9.206;2023-08-12T10:38:08;31.20;43.20
32394;DHT22;18853;45.426;9.206;2023-08-12T10:40:34;31.20;42.80
32394;DHT22;18853;45.426;9.206;2023-08-12T10:43:00;31.20;43.00
32394;DHT22;18853;45.426;9.206;2023-08-12T10:45:41;31.20;42.60
32394;DHT22;18853;45.426;9.206;2023-08-12T10:50:34;31.30;43.10
32394;DHT22;18853;45.426;9.206;2023-08-12T10:53:24;31.20;43.30
32394;DHT22;18853;45.426;9.206;2023-08-12T10:55:58;31.30;43.20
32394;DHT22;18853;45.426;9.206;2023-08-12T10:58:26;31.30;43.10
32394;DHT22;18853;45.426;9.206;2023-08-12T11:00:56;31.40;43.40
32394;DHT22;18853;45.426;9.206;2023-08-12T11:03:23;31.50;43.40
32394;DHT22;18853;45.426;9.206;2023-08-12T11:05:49;31.50;43.90
32394;DHT22;18853;45.426;9.206;2023-08-12T11:08:16;31.50;42.60
32394;DHT22;18853;45.426;9.206;2023-08-12T11:10:42;31.60;42.60
32394;DHT22;18853;45.426;9.206;2023-08-12T11:13:08;31.60;42.20
32394;DHT22;18853;45.426;9.206;2023-08-12T11:15:35;31.50;41.90
32394;DHT22;18853;45.426;9.206;2023-08-12T11:18:06;31.50;42.60
32394;DHT22;18853;45.426;9.206;2023-08-12T11:20:32;31.50;42.20
32394;DHT22;18853;45.426;9.206;2023-08-12T11:22:59;31.60;42.90
32394;DHT22;18853;45.426;9.206;2023-08-12T11:25:25;31.70;42.80
32394;DHT22;18853;45.426;9.206;2023-08-12T11:27:51;31.70;42.20
32394;DHT22;18853;45.426;9.206;2023-08-12T11:30:18;31.70;43.20
32394;DHT22;18853;45.426;9.206;2023-08-12T11:32:46;31.80;42.90
32394;DHT22;18853;45.426;9.206;2023-08-12T11:35:13;31.80;42.60
32394;DHT22;18853;45.426;9.206;2023-08-12T11:37:40;31.90;42.90
32394;DHT22;18853;45.426;9.206;2023-08-12T11:40:08;31.90;42.90
32394;DHT22;18853;45.426;9.206;2023-08-12T11:42:41;31.90;43.00
32394;DHT22;18853;45.426;9.206;2023-08-12T11:45:08;32.00;42.70
32394;DHT22;18853;45.426;9.206;2023-08-12T11:47:40;32.10;42.30
32394;DHT22;18853;45.426;9.206;2023-08-12T11:50:06;32.10;41.90
32394;DHT22;18853;45.426;9.206;2023-08-12T11:52:33;32.20;42.40
32394;DHT22;18853;45.426;9.206;2023-08-12T11:54:59;32.30;42.20
32394;DHT22;18853;45.426;9.206;2023-08-12T11:57:26;32.30;42.30
32394;DHT22;18853;45.426;9.206;2023-08-12T12:00:06;32.40;41.90
32394;DHT22;18853;45.426;9.206;2023-08-12T12:02:54;32.50;42.20
32394;DHT22;18853;45.426;9.206;2023-08-12T12:05:25;32.50;42.00
32394;DHT22;18853;45.426;9.206;2023-08-12T12:07:52;32.70;41.60
32394;DHT22;18853;45.426;9.206;2023-08-12T12:10:26;32.70;41.60
32394;DHT22;18853;45.426;9.206;2023-08-12T12:12:56;32.80;41.50
32394;DHT22;18853;45.426;9.206;2023-08-12T12:15:22;32.80;41.20
32394;DHT22;18853;45.426;9.206;2023-08-12T12:17:49;32.80;41.30
32394;DHT22;18853;45.426;9.206;2023-08-12T12:20:15;32.90;41.40
32394;DHT22;18853;45.426;9.206;2023-08-12T12:22:43;33.00;41.40
32394;DHT22;18853;45.426;9.206;2023-08-12T12:25:13;33.00;41.40
32394;DHT22;18853;45.426;9.206;2023-08-12T12:27:40;33.10;41.20
32394;DHT22;18853;45.426;9.206;2023-08-12T12:30:11;33.20;40.90
32394;DHT22;18853;45.426;9.206;2023-08-12T12:32:37;33.30;40.60
32394;DHT22;18853;45.426;9.206;2023-08-12T12:35:03;33.30;40.60
32394;DHT22;18853;45.426;9.206;2023-08-12T12:37:29;33.30;40.40
32394;DHT22;18853;45.426;9.206;2023-08-12T12:39:55;33.40;40.40
32394;DHT22;18853;45.426;9.206;2023-08-12T12:42:21;33.50;40.60
32394;DHT22;18853;45.426;9.206;2023-08-12T12:44:46;33.50;40.70
32394;DHT22;18853;45.426;9.206;2023-08-12T12:47:12;33.50;41.00
32394;DHT22;18853;45.426;9.206;2023-08-12T12:49:39;33.50;40.80
32394;DHT22;18853;45.426;9.206;2023-08-12T12:52:06;33.70;40.80
32394;DHT22;18853;45.426;9.206;2023-08-12T12:54:32;33.70;40.80
32394;DHT22;18853;45.426;9.206;2023-08-12T12:56:58;33.80;39.80
32394;DHT22;18853;45.426;9.206;2023-08-12T12:59:24;33.80;39.50
32394;DHT22;18853;45.426;9.206;2023-08-12T13:01:49;33.90;39.60
32394;DHT22;18853;45.426;9.206;2023-08-12T13:04:15;33.90;39.40
32394;DHT22;18853;45.426;9.206;2023-08-12T13:06:41;34.00;39.00
32394;DHT22;18853;45.426;9.206;2023-08-12T13:09:06;34.10;38.50
32394;DHT22;18853;45.426;9.206;2023-08-12T13:11:33;34.10;38.40
32394;DHT22;18853;45.426;9.206;2023-08-12T13:14:02;34.20;38.40
32394;DHT22;18853;45.426;9.206;2023-08-12T13:16:29;34.30;38.00
32394;DHT22;18853;45.426;9.206;2023-08-12T13:18:55;34.30;38.50
32394;DHT22;18853;45.426;9.206;2023-08-12T13:21:21;34.30;38.50
32394;DHT22;18853;45.426;9.206;2023-08-12T13:23:46;34.30;38.40
32394;DHT22;18853;45.426;9.206;2023-08-12T13:26:12;34.20;38.80
32394;DHT22;18853;45.426;9.206;2023-08-12T13:28:38;34.30;38.60
32394;DHT22;18853;45.426;9.206;2023-08-12T13:31:04;34.30;39.30
32394;DHT22;18853;45.426;9.206;2023-08-12T13:33:29;34.40;38.10
32394;DHT22;18853;45.426;9.206;2023-08-12T13:35:55;34.40;37.90
32394;DHT22;18853;45.426;9.206;2023-08-12T13:38:21;34.50;37.90
32394;DHT22;18853;45.426;9.206;2023-08-12T13:40:46;34.60;37.80
32394;DHT22;18853;45.426;9.206;2023-08-12T13:43:12;34.60;37.20
32394;DHT22;18853;45.426;9.206;2023-08-12T13:45:37;34.70;37.30
32394;DHT22;18853;45.426;9.206;2023-08-12T13:48:03;34.70;37.50
32394;DHT22;18853;45.426;9.206;2023-08-12T13:50:29;34.80;37.50
32394;DHT22;18853;45.426;9.206;2023-08-12T13:52:58;34.80;37.80
32394;DHT22;18853;45.426;9.206;2023-08-12T13:55:24;34.80;38.20
32394;DHT22;18853;45.426;9.206;2023-08-12T13:57:50;34.90;38.40
32394;DHT22;18853;45.426;9.206;2023-08-12T14:00:15;35.00;38.10
32394;DHT22;18853;45.426;9.206;2023-08-12T14:02:41;35.10;37.50
32394;DHT22;18853;45.426;9.206;2023-08-12T14:05:07;35.20;37.30
32394;DHT22;18853;45.426;9.206;2023-08-12T14:07:33;35.10;37.20
32394;DHT22;18853;45.426;9.206;2023-08-12T14:09:59;35.20;37.60
32394;DHT22;18853;45.426;9.206;2023-08-12T14:12:25;35.10;37.80
32394;DHT22;18853;45.426;9.206;2023-08-12T14:14:51;35.10;37.20
32394;DHT22;18853;45.426;9.206;2023-08-12T14:17:17;35.10;37.50
32394;DHT22;18853;45.426;9.206;2023-08-12T14:19:47;35.30;37.60
32394;DHT22;18853;45.426;9.206;2023-08-12T14:22:13;35.30;37.50
32394;DHT22;18853;45.426;9.206;2023-08-12T14:24:39;35.50;37.90
32394;DHT22;18853;45.426;9.206;2023-08-12T14:27:05;35.60;37.10
32394;DHT22;18853;45.426;9.206;2023-08-12T14:29:30;35.70;37.10
32394;DHT22;18853;45.426;9.206;2023-08-12T14:31:57;35.80;37.00
32394;DHT22;18853;45.426;9.206;2023-08-12T14:34:22;35.90;36.40
32394;DHT22;18853;45.426;9.206;2023-08-12T14:36:48;36.00;36.20
32394;DHT22;18853;45.426;9.206;2023-08-12T14:39:14;36.10;36.10
32394;DHT22;18853;45.426;9.206;2023-08-12T14:41:39;36.20;35.80
32394;DHT22;18853;45.426;9.206;2023-08-12T14:44:05;36.20;35.80
32394;DHT22;18853;45.426;9.206;2023-08-12T14:46:31;36.30;35.80
32394;DHT22;18853;45.426;9.206;2023-08-12T14:48:56;36.30;36.00
32394;DHT22;18853;45.426;9.206;2023-08-12T14:51:22;36.40;35.80
32394;DHT22;18853;45.426;9.206;2023-08-12T14:53:48;36.50;35.60
32394;DHT22;18853;45.426;9.206;2023-08-12T14:56:15;36.60;35.30
32394;DHT22;18853;45.426;9.206;2023-08-12T14:58:40;36.60;35.20
32394;DHT22;18853;45.426;9.206;2023-08-12T15:01:06;36.70;35.30
32394;DHT22;18853;45.426;9.206;2023-08-12T15:03:32;36.70;35.20
32394;DHT22;18853;45.426;9.206;2023-08-12T15:06:02;36.70;35.10
32394;DHT22;18853;45.426;9.206;2023-08-12T15:08:29;36.80;35.00
32394;DHT22;18853;45.426;9.206;2023-08-12T15:10:55;36.80;35.10
32394;DHT22;18853;45.426;9.206;2023-08-12T15:13:21;36.70;35.10
32394;DHT22;18853;45.426;9.206;2023-08-12T15:15:48;36.90;35.30
32394;DHT22;18853;45.426;9.206;2023-08-12T15:18:14;36.90;35.60
32394;DHT22;18853;45.426;9.206;2023-08-12T15:20:40;37.00;35.40
32394;DHT22;18853;45.426;9.206;2023-08-12T15:23:06;37.00;35.40
32394;DHT22;18853;45.426;9.206;2023-08-12T15:25:31;37.00;35.30
32394;DHT22;18853;45.426;9.206;2023-08-12T15:27:57;37.10;35.10
32394;DHT22;18853;45.426;9.206;2023-08-12T15:30:23;37.10;34.90
32394;DHT22;18853;45.426;9.206;2023-08-12T15:32:49;37.20;35.00